Terminal Aerodrome Forecast
Issued by NWS

Home | Current Version | Previous Version | Text Only | Print | Product List | Glossary On
Versions: 1 2 3 4 5 6 7 8 9 10 11 12 13
000
FTUS45 KABQ 011127
TAFAEG
TAF
KAEG 011127Z 0112/0212 26006KT P6SM SCT130 BKN200
     FM011800 24008KT P6SM VCSH SCT080 BKN130
     FM012300 26012KT P6SM VCTS SCT090CB BKN140
     FM020100 33011KT P6SM VCSH SCT100 BKN140
     FM020500 32006KT P6SM SCT110 BKN200=

USA.gov is the U.S. government's official web portal to all federal, state and local government web resources and services.